sensor_id;sensor_type;location;lat;lon;timestamp;pressure;altitude;pressure_sealevel;temperature
70831;BMP180;58451;51.550;7.208;2024-02-15T00:01:21;100979.80;;;11.30
70831;BMP180;58451;51.550;7.208;2024-02-15T00:02:55;100985.60;;;11.30
70831;BMP180;58451;51.550;7.208;2024-02-15T00:04:30;100982.60;;;11.30
70831;BMP180;58451;51.550;7.208;2024-02-15T00:06:04;100984.40;;;11.30
70831;BMP180;58451;51.550;7.208;2024-02-15T00:07:36;100985.60;;;11.30
70831;BMP180;58451;51.550;7.208;2024-02-15T00:09:08;100983.20;;;11.30
70831;BMP180;58451;51.550;7.208;2024-02-15T00:10:40;100981.40;;;11.30
70831;BMP180;58451;51.550;7.208;2024-02-15T00:12:12;100986.60;;;11.30
70831;BMP180;58451;51.550;7.208;2024-02-15T00:13:44;100983.60;;;11.30
70831;BMP180;58451;51.550;7.208;2024-02-15T00:15:17;100984.80;;;11.30
70831;BMP180;58451;51.550;7.208;2024-02-15T00:16:51;100987.40;;;11.30
70831;BMP180;58451;51.550;7.208;2024-02-15T00:18:23;100986.00;;;11.30
70831;BMP180;58451;51.550;7.208;2024-02-15T00:19:55;100988.20;;;11.30
70831;BMP180;58451;51.550;7.208;2024-02-15T00:21:28;100985.60;;;11.34
70831;BMP180;58451;51.550;7.208;2024-02-15T00:23:00;100985.00;;;11.40
70831;BMP180;58451;51.550;7.208;2024-02-15T00:24:32;100987.60;;;11.40
70831;BMP180;58451;51.550;7.208;2024-02-15T00:26:04;100991.00;;;11.40
70831;BMP180;58451;51.550;7.208;2024-02-15T00:27:37;100990.80;;;11.40
70831;BMP180;58451;51.550;7.208;2024-02-15T00:29:10;100990.40;;;11.40
70831;BMP180;58451;51.550;7.208;2024-02-15T00:30:42;100988.80;;;11.40
70831;BMP180;58451;51.550;7.208;2024-02-15T00:32:15;100991.60;;;11.40
70831;BMP180;58451;51.550;7.208;2024-02-15T00:33:47;100988.40;;;11.40
70831;BMP180;58451;51.550;7.208;2024-02-15T00:35:22;100984.20;;;11.40
70831;BMP180;58451;51.550;7.208;2024-02-15T00:36:55;100988.00;;;11.40
70831;BMP180;58451;51.550;7.208;2024-02-15T00:38:27;100989.00;;;11.40
70831;BMP180;58451;51.550;7.208;2024-02-15T00:39:59;100988.20;;;11.40
70831;BMP180;58451;51.550;7.208;2024-02-15T00:41:34;100990.40;;;11.40
70831;BMP180;58451;51.550;7.208;2024-02-15T00:43:07;100991.40;;;11.38
70831;BMP180;58451;51.550;7.208;2024-02-15T00:44:39;100990.20;;;11.40
70831;BMP180;58451;51.550;7.208;2024-02-15T00:46:16;100989.40;;;11.40
70831;BMP180;58451;51.550;7.208;2024-02-15T00:47:48;100995.20;;;11.40
70831;BMP180;58451;51.550;7.208;2024-02-15T00:49:20;100992.60;;;11.40
70831;BMP180;58451;51.550;7.208;2024-02-15T00:50:53;100992.40;;;11.40
70831;BMP180;58451;51.550;7.208;2024-02-15T00:52:25;101000.60;;;11.40
70831;BMP180;58451;51.550;7.208;2024-02-15T00:53:57;100994.80;;;11.40
70831;BMP180;58451;51.550;7.208;2024-02-15T00:55:29;100991.20;;;11.40
70831;BMP180;58451;51.550;7.208;2024-02-15T00:57:02;100998.40;;;11.40
70831;BMP180;58451;51.550;7.208;2024-02-15T00:58:34;100998.60;;;11.40
70831;BMP180;58451;51.550;7.208;2024-02-15T01:00:08;101002.20;;;11.40
70831;BMP180;58451;51.550;7.208;2024-02-15T01:01:42;101002.20;;;11.40
70831;BMP180;58451;51.550;7.208;2024-02-15T01:03:15;101003.00;;;11.40
70831;BMP180;58451;51.550;7.208;2024-02-15T01:04:48;101002.00;;;11.40
70831;BMP180;58451;51.550;7.208;2024-02-15T01:06:20;100998.20;;;11.40
70831;BMP180;58451;51.550;7.208;2024-02-15T01:07:52;101003.20;;;11.40
70831;BMP180;58451;51.550;7.208;2024-02-15T01:09:25;100999.60;;;11.36
70831;BMP180;58451;51.550;7.208;2024-02-15T01:10:58;100998.00;;;11.30
70831;BMP180;58451;51.550;7.208;2024-02-15T01:12:30;100992.00;;;11.34
70831;BMP180;58451;51.550;7.208;2024-02-15T01:14:02;100996.20;;;11.40
70831;BMP180;58451;51.550;7.208;2024-02-15T01:15:34;100995.60;;;11.36
70831;BMP180;58451;51.550;7.208;2024-02-15T01:17:06;100997.00;;;11.34
70831;BMP180;58451;51.550;7.208;2024-02-15T01:18:43;100997.80;;;11.30
70831;BMP180;58451;51.550;7.208;2024-02-15T01:20:16;100996.60;;;11.30
70831;BMP180;58451;51.550;7.208;2024-02-15T01:21:49;100996.20;;;11.30
70831;BMP180;58451;51.550;7.208;2024-02-15T01:23:21;100992.60;;;11.30
70831;BMP180;58451;51.550;7.208;2024-02-15T01:24:54;100990.20;;;11.30
70831;BMP180;58451;51.550;7.208;2024-02-15T01:26:29;100992.80;;;11.30
70831;BMP180;58451;51.550;7.208;2024-02-15T01:28:01;100993.20;;;11.30
70831;BMP180;58451;51.550;7.208;2024-02-15T01:29:33;100991.60;;;11.30
70831;BMP180;58451;51.550;7.208;2024-02-15T01:31:07;100992.20;;;11.32
70831;BMP180;58451;51.550;7.208;2024-02-15T01:32:41;100988.60;;;11.32
70831;BMP180;58451;51.550;7.208;2024-02-15T01:34:15;100986.40;;;11.30
70831;BMP180;58451;51.550;7.208;2024-02-15T01:35:47;100990.20;;;11.34
70831;BMP180;58451;51.550;7.208;2024-02-15T01:37:21;100991.60;;;11.40
70831;BMP180;58451;51.550;7.208;2024-02-15T01:38:53;100989.20;;;11.34
70831;BMP180;58451;51.550;7.208;2024-02-15T01:40:25;100990.00;;;11.38
70831;BMP180;58451;51.550;7.208;2024-02-15T01:41:57;100987.60;;;11.38
70831;BMP180;58451;51.550;7.208;2024-02-15T01:43:33;100987.40;;;11.40
70831;BMP180;58451;51.550;7.208;2024-02-15T01:45:09;100986.80;;;11.40
70831;BMP180;58451;51.550;7.208;2024-02-15T01:46:44;100986.80;;;11.40
70831;BMP180;58451;51.550;7.208;2024-02-15T01:48:18;100990.60;;;11.40
70831;BMP180;58451;51.550;7.208;2024-02-15T01:49:52;100990.40;;;11.40
70831;BMP180;58451;51.550;7.208;2024-02-15T01:51:25;100988.20;;;11.40
70831;BMP180;58451;51.550;7.208;2024-02-15T01:52:59;100991.40;;;11.40
70831;BMP180;58451;51.550;7.208;2024-02-15T01:54:32;100986.40;;;11.40
70831;BMP180;58451;51.550;7.208;2024-02-15T01:56:05;100981.60;;;11.40
70831;BMP180;58451;51.550;7.208;2024-02-15T01:57:37;100979.80;;;11.40
70831;BMP180;58451;51.550;7.208;2024-02-15T01:59:13;100979.40;;;11.40
70831;BMP180;58451;51.550;7.208;2024-02-15T02:00:48;100978.20;;;11.40
70831;BMP180;58451;51.550;7.208;2024-02-15T02:02:25;100981.20;;;11.40
70831;BMP180;58451;51.550;7.208;2024-02-15T02:04:00;100981.80;;;11.40
70831;BMP180;58451;51.550;7.208;2024-02-15T02:05:32;100975.40;;;11.40
70831;BMP180;58451;51.550;7.208;2024-02-15T02:07:05;100978.40;;;11.40
70831;BMP180;58451;51.550;7.208;2024-02-15T02:08:37;100979.40;;;11.40
70831;BMP180;58451;51.550;7.208;2024-02-15T02:10:09;100980.00;;;11.40
70831;BMP180;58451;51.550;7.208;2024-02-15T02:11:51;100977.20;;;11.42
70831;BMP180;58451;51.550;7.208;2024-02-15T02:13:23;100974.00;;;11.40
70831;BMP180;58451;51.550;7.208;2024-02-15T02:14:56;100972.20;;;11.40
70831;BMP180;58451;51.550;7.208;2024-02-15T02:16:31;100972.20;;;11.44
70831;BMP180;58451;51.550;7.208;2024-02-15T02:18:04;100968.00;;;11.48
70831;BMP180;58451;51.550;7.208;2024-02-15T02:19:42;100968.80;;;11.46
70831;BMP180;58451;51.550;7.208;2024-02-15T02:21:16;100967.40;;;11.44
70831;BMP180;58451;51.550;7.208;2024-02-15T02:22:53;100965.80;;;11.46
70831;BMP180;58451;51.550;7.208;2024-02-15T02:24:28;100958.40;;;11.46
70831;BMP180;58451;51.550;7.208;2024-02-15T02:26:00;100958.80;;;11.42
70831;BMP180;58451;51.550;7.208;2024-02-15T02:27:33;100958.20;;;11.48
70831;BMP180;58451;51.550;7.208;2024-02-15T02:29:07;100956.60;;;11.50
70831;BMP180;58451;51.550;7.208;2024-02-15T02:30:39;100952.60;;;11.50
70831;BMP180;58451;51.550;7.208;2024-02-15T02:32:13;100953.20;;;11.50
70831;BMP180;58451;51.550;7.208;2024-02-15T02:33:52;100952.20;;;11.50
70831;BMP180;58451;51.550;7.208;2024-02-15T02:35:25;100951.40;;;11.50
70831;BMP180;58451;51.550;7.208;2024-02-15T02:37:00;100949.00;;;11.50
70831;BMP180;58451;51.550;7.208;2024-02-15T02:38:35;100951.00;;;11.46
70831;BMP180;58451;51.550;7.208;2024-02-15T02:40:10;100948.00;;;11.50
70831;BMP180;58451;51.550;7.208;2024-02-15T02:41:44;100942.80;;;11.50
70831;BMP180;58451;51.550;7.208;2024-02-15T02:43:16;100944.40;;;11.46
70831;BMP180;58451;51.550;7.208;2024-02-15T02:44:48;100940.00;;;11.44
70831;BMP180;58451;51.550;7.208;2024-02-15T02:46:20;100941.80;;;11.50
70831;BMP180;58451;51.550;7.208;2024-02-15T02:47:54;100939.60;;;11.48
70831;BMP180;58451;51.550;7.208;2024-02-15T02:49:29;100938.60;;;11.48
70831;BMP180;58451;51.550;7.208;2024-02-15T02:51:02;100939.40;;;11.50
70831;BMP180;58451;51.550;7.208;2024-02-15T02:52:35;100935.80;;;11.46
70831;BMP180;58451;51.550;7.208;2024-02-15T02:54:11;100934.20;;;11.44
70831;BMP180;58451;51.550;7.208;2024-02-15T02:55:43;100935.40;;;11.50
70831;BMP180;58451;51.550;7.208;2024-02-15T02:57:15;100934.40;;;11.50
70831;BMP180;58451;51.550;7.208;2024-02-15T02:58:47;100940.60;;;11.50
70831;BMP180;58451;51.550;7.208;2024-02-15T03:00:19;100935.00;;;11.50
70831;BMP180;58451;51.550;7.208;2024-02-15T03:01:51;100934.60;;;11.50
70831;BMP180;58451;51.550;7.208;2024-02-15T03:03:24;100929.00;;;11.50
70831;BMP180;58451;51.550;7.208;2024-02-15T03:04:56;100931.80;;;11.50
70831;BMP180;58451;51.550;7.208;2024-02-15T03:06:29;100933.80;;;11.50
70831;BMP180;58451;51.550;7.208;2024-02-15T03:08:02;100929.60;;;11.50
70831;BMP180;58451;51.550;7.208;2024-02-15T03:09:35;100928.00;;;11.50
70831;BMP180;58451;51.550;7.208;2024-02-15T03:11:09;100928.00;;;11.50
70831;BMP180;58451;51.550;7.208;2024-02-15T03:12:41;100931.20;;;11.50
70831;BMP180;58451;51.550;7.208;2024-02-15T03:14:20;100930.00;;;11.50
70831;BMP180;58451;51.550;7.208;2024-02-15T03:15:53;100923.20;;;11.50
70831;BMP180;58451;51.550;7.208;2024-02-15T03:17:25;100922.80;;;11.50
70831;BMP180;58451;51.550;7.208;2024-02-15T03:18:57;100927.20;;;11.50
70831;BMP180;58451;51.550;7.208;2024-02-15T03:20:29;100923.60;;;11.50
70831;BMP180;58451;51.550;7.208;2024-02-15T03:22:01;100924.80;;;11.50
70831;BMP180;58451;51.550;7.208;2024-02-15T03:23:33;100922.60;;;11.50
70831;BMP180;58451;51.550;7.208;2024-02-15T03:25:06;100919.80;;;11.50
70831;BMP180;58451;51.550;7.208;2024-02-15T03:26:39;100926.20;;;11.50
70831;BMP180;58451;51.550;7.208;2024-02-15T03:28:12;100922.80;;;11.50
70831;BMP180;58451;51.550;7.208;2024-02-15T03:29:44;100923.60;;;11.52
70831;BMP180;58451;51.550;7.208;2024-02-15T03:31:16;100922.80;;;11.52
70831;BMP180;58451;51.550;7.208;2024-02-15T03:32:50;100922.40;;;11.52
70831;BMP180;58451;51.550;7.208;2024-02-15T03:34:25;100921.80;;;11.56
70831;BMP180;58451;51.550;7.208;2024-02-15T03:35:58;100922.00;;;11.52
70831;BMP180;58451;51.550;7.208;2024-02-15T03:37:32;100917.20;;;11.56
70831;BMP180;58451;51.550;7.208;2024-02-15T03:39:08;100916.20;;;11.54
70831;BMP180;58451;51.550;7.208;2024-02-15T03:40:41;100916.20;;;11.56
70831;BMP180;58451;51.550;7.208;2024-02-15T03:42:13;100915.00;;;11.50
70831;BMP180;58451;51.550;7.208;2024-02-15T03:43:45;100915.00;;;11.54
70831;BMP180;58451;51.550;7.208;2024-02-15T03:45:20;100911.00;;;11.50
70831;BMP180;58451;51.550;7.208;2024-02-15T03:46:52;100907.00;;;11.50
70831;BMP180;58451;51.550;7.208;2024-02-15T03:48:27;100909.60;;;11.52
70831;BMP180;58451;51.550;7.208;2024-02-15T03:49:59;100908.20;;;11.52
70831;BMP180;58451;51.550;7.208;2024-02-15T03:51:31;100911.00;;;11.52
70831;BMP180;58451;51.550;7.208;2024-02-15T03:53:04;100911.40;;;11.50
70831;BMP180;58451;51.550;7.208;2024-02-15T03:54:39;100916.20;;;11.52
70831;BMP180;58451;51.550;7.208;2024-02-15T03:56:15;100909.00;;;11.58
70831;BMP180;58451;51.550;7.208;2024-02-15T03:57:47;100912.00;;;11.60
70831;BMP180;58451;51.550;7.208;2024-02-15T03:59:19;100907.80;;;11.60
70831;BMP180;58451;51.550;7.208;2024-02-15T04:00:59;100909.80;;;11.60
70831;BMP180;58451;51.550;7.208;2024-02-15T04:02:31;100909.80;;;11.60
70831;BMP180;58451;51.550;7.208;2024-02-15T04:04:03;100910.80;;;11.60
70831;BMP180;58451;51.550;7.208;2024-02-15T04:05:35;100911.60;;;11.60
70831;BMP180;58451;51.550;7.208;2024-02-15T04:07:08;100912.00;;;11.60
70831;BMP180;58451;51.550;7.208;2024-02-15T04:08:42;100908.00;;;11.60
70831;BMP180;58451;51.550;7.208;2024-02-15T04:10:14;100904.60;;;11.60
70831;BMP180;58451;51.550;7.208;2024-02-15T04:11:49;100905.60;;;11.60
70831;BMP180;58451;51.550;7.208;2024-02-15T04:13:25;100902.20;;;11.60
70831;BMP180;58451;51.550;7.208;2024-02-15T04:14:57;100902.40;;;11.60
70831;BMP180;58451;51.550;7.208;2024-02-15T04:16:37;100909.20;;;11.60
70831;BMP180;58451;51.550;7.208;2024-02-15T04:18:10;100907.80;;;11.60
70831;BMP180;58451;51.550;7.208;2024-02-15T04:19:44;100902.20;;;11.60
70831;BMP180;58451;51.550;7.208;2024-02-15T04:21:18;100900.20;;;11.60
70831;BMP180;58451;51.550;7.208;2024-02-15T04:22:53;100900.60;;;11.60
70831;BMP180;58451;51.550;7.208;2024-02-15T04:24:26;100902.00;;;11.60
70831;BMP180;58451;51.550;7.208;2024-02-15T04:25:58;100899.80;;;11.60
70831;BMP180;58451;51.550;7.208;2024-02-15T04:27:34;100895.20;;;11.60
70831;BMP180;58451;51.550;7.208;2024-02-15T04:29:06;100893.40;;;11.60
70831;BMP180;58451;51.550;7.208;2024-02-15T04:30:41;100893.00;;;11.60
70831;BMP180;58451;51.550;7.208;2024-02-15T04:32:13;100892.60;;;11.60
70831;BMP180;58451;51.550;7.208;2024-02-15T04:33:45;100889.40;;;11.60
70831;BMP180;58451;51.550;7.208;2024-02-15T04:35:21;100896.80;;;11.60
70831;BMP180;58451;51.550;7.208;2024-02-15T04:36:54;100895.60;;;11.60
70831;BMP180;58451;51.550;7.208;2024-02-15T04:38:27;100895.60;;;11.60
70831;BMP180;58451;51.550;7.208;2024-02-15T04:39:59;100890.00;;;11.60
70831;BMP180;58451;51.550;7.208;2024-02-15T04:41:40;100897.80;;;11.60
70831;BMP180;58451;51.550;7.208;2024-02-15T04:43:12;100893.00;;;11.60
70831;BMP180;58451;51.550;7.208;2024-02-15T04:44:47;100895.40;;;11.60
70831;BMP180;58451;51.550;7.208;2024-02-15T04:46:20;100892.20;;;11.60
70831;BMP180;58451;51.550;7.208;2024-02-15T04:47:56;100892.00;;;11.70
70831;BMP180;58451;51.550;7.208;2024-02-15T04:49:33;100899.40;;;11.70
70831;BMP180;58451;51.550;7.208;2024-02-15T04:51:05;100902.80;;;11.70
70831;BMP180;58451;51.550;7.208;2024-02-15T04:52:37;100902.60;;;11.70
70831;BMP180;58451;51.550;7.208;2024-02-15T04:54:10;100896.00;;;11.70
70831;BMP180;58451;51.550;7.208;2024-02-15T04:55:46;100890.00;;;11.70
70831;BMP180;58451;51.550;7.208;2024-02-15T04:57:18;100887.60;;;11.70
70831;BMP180;58451;51.550;7.208;2024-02-15T04:58:50;100887.60;;;11.70
70831;BMP180;58451;51.550;7.208;2024-02-15T05:00:25;100890.00;;;11.70
70831;BMP180;58451;51.550;7.208;2024-02-15T05:01:58;100890.20;;;11.70
70831;BMP180;58451;51.550;7.208;2024-02-15T05:03:32;100887.60;;;11.70
70831;BMP180;58451;51.550;7.208;2024-02-15T05:05:10;100889.60;;;11.70
70831;BMP180;58451;51.550;7.208;2024-02-15T05:06:45;100888.60;;;11.70
70831;BMP180;58451;51.550;7.208;2024-02-15T05:08:17;100889.60;;;11.70
70831;BMP180;58451;51.550;7.208;2024-02-15T05:09:49;100887.40;;;11.70
70831;BMP180;58451;51.550;7.208;2024-02-15T05:11:24;100885.80;;;11.70
70831;BMP180;58451;51.550;7.208;2024-02-15T05:12:56;100882.00;;;11.70
70831;BMP180;58451;51.550;7.208;2024-02-15T05:14:33;100881.40;;;11.70
70831;BMP180;58451;51.550;7.208;2024-02-15T05:16:12;100886.60;;;11.70
70831;BMP180;58451;51.550;7.208;2024-02-15T05:17:46;100883.80;;;11.70
70831;BMP180;58451;51.550;7.208;2024-02-15T05:19:20;100887.00;;;11.70
70831;BMP180;58451;51.550;7.208;2024-02-15T05:20:53;100883.00;;;11.70
70831;BMP180;58451;51.550;7.208;2024-02-15T05:22:26;100881.80;;;11.70
70831;BMP180;58451;51.550;7.208;2024-02-15T05:24:01;100882.40;;;11.78
70831;BMP180;58451;51.550;7.208;2024-02-15T05:25:34;100876.80;;;11.80
70831;BMP180;58451;51.550;7.208;2024-02-15T05:27:08;100879.00;;;11.80
70831;BMP180;58451;51.550;7.208;2024-02-15T05:28:47;100878.20;;;11.80
70831;BMP180;58451;51.550;7.208;2024-02-15T05:30:19;100874.80;;;11.80
70831;BMP180;58451;51.550;7.208;2024-02-15T05:31:51;100878.00;;;11.80
70831;BMP180;58451;51.550;7.208;2024-02-15T05:33:23;100877.00;;;11.80
70831;BMP180;58451;51.550;7.208;2024-02-15T05:34:56;100876.60;;;11.80
70831;BMP180;58451;51.550;7.208;2024-02-15T05:36:28;100870.80;;;11.80
70831;BMP180;58451;51.550;7.208;2024-02-15T05:38:02;100873.80;;;11.80
70831;BMP180;58451;51.550;7.208;2024-02-15T05:39:38;100871.60;;;11.80
70831;BMP180;58451;51.550;7.208;2024-02-15T05:41:12;100874.40;;;11.80
70831;BMP180;58451;51.550;7.208;2024-02-15T05:42:44;100877.20;;;11.80
70831;BMP180;58451;51.550;7.208;2024-02-15T05:44:21;100871.60;;;11.80
70831;BMP180;58451;51.550;7.208;2024-02-15T05:45:53;100870.40;;;11.80
70831;BMP180;58451;51.550;7.208;2024-02-15T05:47:26;100873.20;;;11.80
70831;BMP180;58451;51.550;7.208;2024-02-15T05:48:58;100874.60;;;11.80
70831;BMP180;58451;51.550;7.208;2024-02-15T05:50:31;100872.80;;;11.80
70831;BMP180;58451;51.550;7.208;2024-02-15T05:52:04;100866.60;;;11.80
70831;BMP180;58451;51.550;7.208;2024-02-15T05:53:36;100868.20;;;11.80
70831;BMP180;58451;51.550;7.208;2024-02-15T05:55:08;100866.40;;;11.80
70831;BMP180;58451;51.550;7.208;2024-02-15T05:56:43;100867.60;;;11.80
70831;BMP180;58451;51.550;7.208;2024-02-15T05:58:16;100869.00;;;11.80
70831;BMP180;58451;51.550;7.208;2024-02-15T05:59:49;100864.80;;;11.80
70831;BMP180;58451;51.550;7.208;2024-02-15T06:01:23;100867.40;;;11.80
70831;BMP180;58451;51.550;7.208;2024-02-15T06:02:56;100866.80;;;11.88
70831;BMP180;58451;51.550;7.208;2024-02-15T06:04:28;100870.20;;;11.90
70831;BMP180;58451;51.550;7.208;2024-02-15T06:06:01;100868.40;;;11.90
70831;BMP180;58451;51.550;7.208;2024-02-15T06:07:34;100870.20;;;11.90
70831;BMP180;58451;51.550;7.208;2024-02-15T06:09:08;100867.80;;;11.90
70831;BMP180;58451;51.550;7.208;2024-02-15T06:10:40;100863.60;;;11.90
70831;BMP180;58451;51.550;7.208;2024-02-15T06:12:12;100868.40;;;11.90
70831;BMP180;58451;51.550;7.208;2024-02-15T06:13:45;100867.00;;;11.90
70831;BMP180;58451;51.550;7.208;2024-02-15T06:15:17;100865.80;;;11.90
70831;BMP180;58451;51.550;7.208;2024-02-15T06:16:50;100866.20;;;11.90
70831;BMP180;58451;51.550;7.208;2024-02-15T06:18:27;100869.20;;;11.90
70831;BMP180;58451;51.550;7.208;2024-02-15T06:20:04;100867.00;;;11.90
70831;BMP180;58451;51.550;7.208;2024-02-15T06:21:37;100870.40;;;11.92
70831;BMP180;58451;51.550;7.208;2024-02-15T06:23:11;100868.80;;;11.94
70831;BMP180;58451;51.550;7.208;2024-02-15T06:24:43;100869.80;;;11.96
70831;BMP180;58451;51.550;7.208;2024-02-15T06:26:15;100871.60;;;12.00
70831;BMP180;58451;51.550;7.208;2024-02-15T06:27:47;100872.60;;;12.00
70831;BMP180;58451;51.550;7.208;2024-02-15T06:29:21;100870.40;;;12.00
70831;BMP180;58451;51.550;7.208;2024-02-15T06:31:14;100870.80;;;12.00
70831;BMP180;58451;51.550;7.208;2024-02-15T06:33:04;100869.00;;;12.00
70831;BMP180;58451;51.550;7.208;2024-02-15T06:35:15;100873.80;;;12.00
70831;BMP180;58451;51.550;7.208;2024-02-15T06:37:06;100876.40;;;12.00
70831;BMP180;58451;51.550;7.208;2024-02-15T06:38:58;100874.40;;;11.96
70831;BMP180;58451;51.550;7.208;2024-02-15T06:40:49;100880.80;;;11.98
70831;BMP180;58451;51.550;7.208;2024-02-15T06:42:21;100877.20;;;11.94
70831;BMP180;58451;51.550;7.208;2024-02-15T06:43:54;100882.40;;;11.90
70831;BMP180;58451;51.550;7.208;2024-02-15T06:45:27;100883.40;;;11.90
70831;BMP180;58451;51.550;7.208;2024-02-15T06:47:01;100882.80;;;11.96
70831;BMP180;58451;51.550;7.208;2024-02-15T06:48:34;100883.00;;;12.00
70831;BMP180;58451;51.550;7.208;2024-02-15T06:50:08;100883.20;;;11.90
70831;BMP180;58451;51.550;7.208;2024-02-15T06:51:41;100881.80;;;11.90
70831;BMP180;58451;51.550;7.208;2024-02-15T06:53:17;100881.60;;;11.90
70831;BMP180;58451;51.550;7.208;2024-02-15T06:54:52;100885.60;;;11.90
70831;BMP180;58451;51.550;7.208;2024-02-15T06:56:24;100882.00;;;11.90
70831;BMP180;58451;51.550;7.208;2024-02-15T06:57:56;100880.40;;;11.90
70831;BMP180;58451;51.550;7.208;2024-02-15T06:59:28;100885.00;;;11.90
70831;BMP180;58451;51.550;7.208;2024-02-15T07:01:01;100886.60;;;11.90
70831;BMP180;58451;51.550;7.208;2024-02-15T07:02:33;100884.60;;;11.90
70831;BMP180;58451;51.550;7.208;2024-02-15T07:04:09;100890.20;;;11.90
70831;BMP180;58451;51.550;7.208;2024-02-15T07:05:44;100890.60;;;11.90
70831;BMP180;58451;51.550;7.208;2024-02-15T07:07:17;100893.80;;;11.90
70831;BMP180;58451;51.550;7.208;2024-02-15T07:08:51;100894.40;;;11.90
70831;BMP180;58451;51.550;7.208;2024-02-15T07:10:25;100890.80;;;11.90
70831;BMP180;58451;51.550;7.208;2024-02-15T07:11:57;100895.20;;;11.90
70831;BMP180;58451;51.550;7.208;2024-02-15T07:13:30;100892.60;;;11.90
70831;BMP180;58451;51.550;7.208;2024-02-15T07:15:04;100898.00;;;11.90
70831;BMP180;58451;51.550;7.208;2024-02-15T07:16:40;100898.40;;;11.90
70831;BMP180;58451;51.550;7.208;2024-02-15T07:18:17;100896.80;;;11.90
70831;BMP180;58451;51.550;7.208;2024-02-15T07:19:53;100892.60;;;11.90
70831;BMP180;58451;51.550;7.208;2024-02-15T07:21:26;100887.40;;;11.90
70831;BMP180;58451;51.550;7.208;2024-02-15T07:22:59;100889.60;;;11.90
70831;BMP180;58451;51.550;7.208;2024-02-15T07:24:31;100890.60;;;11.90
70831;BMP180;58451;51.550;7.208;2024-02-15T07:26:04;100885.80;;;11.90
70831;BMP180;58451;51.550;7.208;2024-02-15T07:27:36;100891.20;;;11.90
70831;BMP180;58451;51.550;7.208;2024-02-15T07:29:08;100883.80;;;11.90
70831;BMP180;58451;51.550;7.208;2024-02-15T07:30:46;100882.00;;;11.80
70831;BMP180;58451;51.550;7.208;2024-02-15T07:32:20;100880.40;;;11.80
70831;BMP180;58451;51.550;7.208;2024-02-15T07:33:53;100880.80;;;11.80
70831;BMP180;58451;51.550;7.208;2024-02-15T07:35:27;100875.20;;;11.80
70831;BMP180;58451;51.550;7.208;2024-02-15T07:37:02;100872.60;;;11.80
70831;BMP180;58451;51.550;7.208;2024-02-15T07:38:35;100868.00;;;11.80
70831;BMP180;58451;51.550;7.208;2024-02-15T07:40:08;100865.60;;;11.80
70831;BMP180;58451;51.550;7.208;2024-02-15T07:41:40;100867.20;;;11.80
70831;BMP180;58451;51.550;7.208;2024-02-15T07:43:14;100860.00;;;11.80
70831;BMP180;58451;51.550;7.208;2024-02-15T07:44:46;100856.80;;;11.80
70831;BMP180;58451;51.550;7.208;2024-02-15T07:46:18;100855.80;;;11.80
70831;BMP180;58451;51.550;7.208;2024-02-15T07:47:50;100850.60;;;11.80
70831;BMP180;58451;51.550;7.208;2024-02-15T07:49:22;100839.20;;;11.80
70831;BMP180;58451;51.550;7.208;2024-02-15T07:50:55;100833.60;;;11.80
70831;BMP180;58451;51.550;7.208;2024-02-15T07:52:28;100827.20;;;11.80
70831;BMP180;58451;51.550;7.208;2024-02-15T07:54:01;100824.60;;;11.80
70831;BMP180;58451;51.550;7.208;2024-02-15T07:55:33;100824.40;;;11.80
70831;BMP180;58451;51.550;7.208;2024-02-15T07:57:06;100820.40;;;11.80
70831;BMP180;58451;51.550;7.208;2024-02-15T07:58:43;100816.20;;;11.84
70831;BMP180;58451;51.550;7.208;2024-02-15T08:00:25;100815.40;;;11.90
70831;BMP180;58451;51.550;7.208;2024-02-15T08:01:59;100812.80;;;11.90
70831;BMP180;58451;51.550;7.208;2024-02-15T08:03:33;100811.60;;;11.90
70831;BMP180;58451;51.550;7.208;2024-02-15T08:05:12;100809.80;;;11.90
70831;BMP180;58451;51.550;7.208;2024-02-15T08:06:46;100812.40;;;11.90
70831;BMP180;58451;51.550;7.208;2024-02-15T08:08:20;100808.00;;;11.90
70831;BMP180;58451;51.550;7.208;2024-02-15T08:09:53;100822.60;;;11.98
70831;BMP180;58451;51.550;7.208;2024-02-15T08:11:25;100822.60;;;12.00
70831;BMP180;58451;51.550;7.208;2024-02-15T08:12:58;100822.20;;;12.00
70831;BMP180;58451;51.550;7.208;2024-02-15T08:14:32;100828.40;;;12.10
70831;BMP180;58451;51.550;7.208;2024-02-15T08:16:04;100828.80;;;12.10
70831;BMP180;58451;51.550;7.208;2024-02-15T08:17:45;100830.60;;;12.10
70831;BMP180;58451;51.550;7.208;2024-02-15T08:19:20;100833.00;;;12.20
70831;BMP180;58451;51.550;7.208;2024-02-15T08:20:55;100830.60;;;12.20
70831;BMP180;58451;51.550;7.208;2024-02-15T08:22:28;100836.40;;;12.30
70831;BMP180;58451;51.550;7.208;2024-02-15T08:24:03;100842.20;;;12.30
70831;BMP180;58451;51.550;7.208;2024-02-15T08:25:39;100849.80;;;12.40
70831;BMP180;58451;51.550;7.208;2024-02-15T08:27:13;100847.40;;;12.40
70831;BMP180;58451;51.550;7.208;2024-02-15T08:28:48;100851.00;;;12.40
70831;BMP180;58451;51.550;7.208;2024-02-15T08:30:20;100854.40;;;12.40
70831;BMP180;58451;51.550;7.208;2024-02-15T08:31:56;100852.20;;;12.42
70831;BMP180;58451;51.550;7.208;2024-02-15T08:33:29;100851.40;;;12.50
70831;BMP180;58451;51.550;7.208;2024-02-15T08:35:02;100859.20;;;12.50
70831;BMP180;58451;51.550;7.208;2024-02-15T08:36:36;100855.40;;;12.50
70831;BMP180;58451;51.550;7.208;2024-02-15T08:38:12;100856.20;;;12.50
70831;BMP180;58451;51.550;7.208;2024-02-15T08:39:44;100857.60;;;12.50
70831;BMP180;58451;51.550;7.208;2024-02-15T08:41:16;100853.40;;;12.50
70831;BMP180;58451;51.550;7.208;2024-02-15T08:42:53;100850.60;;;12.50
70831;BMP180;58451;51.550;7.208;2024-02-15T08:44:25;100849.60;;;12.50
70831;BMP180;58451;51.550;7.208;2024-02-15T08:45:57;100850.00;;;12.50
70831;BMP180;58451;51.550;7.208;2024-02-15T08:47:29;100849.40;;;12.50
70831;BMP180;58451;51.550;7.208;2024-02-15T08:49:02;100853.20;;;12.50
70831;BMP180;58451;51.550;7.208;2024-02-15T08:50:35;100848.00;;;12.50
70831;BMP180;58451;51.550;7.208;2024-02-15T08:52:09;100851.80;;;12.50
70831;BMP180;58451;51.550;7.208;2024-02-15T08:53:43;100846.80;;;12.50